Time;durP1;ratioP1;P1;durP2;ratioP2;P2;SDS_P1;SDS_P2;PMS_P1;PMS_P2;Temp;Humidity;BMP_temperature;BMP_pressure;BME280_temperature;BME280_humidity;BME280_pressure;Samples;Min_cycle;Max_cycle;Signal;HPM_P1;HPM_P2
2022/04/04 00:00:22;;;;;;;2.50;1.50;;;2.10;97.90;1.80;100590.00;;;;4839135;28;86956;-68
2022/04/04 00:02:48;;;;;;;2.07;1.87;;;2.40;98.50;1.80;100581.00;;;;4838806;28;108065;-69
2022/04/04 00:05:14;;;;;;;3.60;1.83;;;2.00;98.70;1.70;100577.00;;;;4838225;28;118687;-67
2022/04/04 00:07:39;;;;;;;1.70;1.33;;;2.00;99.00;1.70;100576.00;;;;4837881;28;117892;-69
2022/04/04 00:10:06;;;;;;;1.27;1.17;;;1.90;99.10;1.60;100571.00;;;;4838640;28;110060;-68
2022/04/04 00:12:31;;;;;;;2.00;1.67;;;2.00;99.40;1.60;100576.00;;;;4839414;28;87897;-68
2022/04/04 00:14:58;;;;;;;1.37;1.27;;;1.90;99.50;1.50;100569.00;;;;4838594;28;117797;-67
2022/04/04 00:17:24;;;;;;;2.10;1.63;;;1.70;99.80;1.50;100574.00;;;;4839114;28;88821;-70
2022/04/04 00:19:49;;;;;;;1.87;1.57;;;1.80;99.90;1.50;100580.00;;;;4838982;28;87870;-67
2022/04/04 00:22:15;;;;;;;2.00;1.83;;;2.40;99.90;1.40;100576.00;;;;4838883;28;109201;-68
2022/04/04 00:24:41;;;;;;;2.97;2.20;;;1.70;99.90;1.40;100577.00;;;;4839677;28;94026;-69
2022/04/04 00:27:06;;;;;;;2.47;1.80;;;1.70;99.90;1.40;100580.00;;;;4838232;28;116435;-67
2022/04/04 00:29:32;;;;;;;2.33;1.57;;;1.70;99.90;1.40;100574.00;;;;4838174;28;110994;-68
2022/04/04 00:31:58;;;;;;;2.10;1.60;;;1.70;99.90;1.40;100577.00;;;;4838520;28;88686;-70
2022/04/04 00:34:24;;;;;;;4.13;2.30;;;1.70;99.90;1.40;100575.00;;;;4837746;28;117817;-70
2022/04/04 00:36:49;;;;;;;2.13;1.50;;;1.60;99.90;1.40;100572.00;;;;4839166;28;88674;-68
2022/04/04 00:39:19;;;;;;;2.73;1.87;;;1.60;99.90;1.40;100574.00;;;;4838279;28;87817;-67
2022/04/04 00:41:48;;;;;;;2.57;1.83;;;1.70;99.90;1.40;100569.00;;;;4821434;28;88001;-68
2022/04/04 00:44:14;;;;;;;2.97;2.30;;;1.60;99.90;1.40;100576.00;;;;4851320;28;118034;-70
2022/04/04 00:46:42;;;;;;;2.00;1.50;;;1.60;99.90;1.40;100571.00;;;;4837793;28;117262;-67
2022/04/04 00:49:08;;;;;;;2.43;1.90;;;1.60;99.90;1.40;100571.00;;;;4838872;28;87483;-67
2022/04/04 00:51:36;;;;;;;2.77;1.70;;;1.60;99.90;1.40;100569.00;;;;4839302;28;87682;-69
2022/04/04 00:54:03;;;;;;;2.63;1.57;;;1.60;99.90;1.40;100563.00;;;;4836205;28;97690;-70
2022/04/04 00:56:32;;;;;;;1.93;1.80;;;1.60;99.90;1.30;100558.00;;;;4837848;28;88836;-70
2022/04/04 00:58:59;;;;;;;2.77;2.10;;;1.60;99.90;1.30;100559.00;;;;4836848;28;87668;-68
2022/04/04 01:01:25;;;;;;;2.03;1.67;;;1.50;99.90;1.30;100561.00;;;;4838874;28;87944;-69
2022/04/04 01:03:51;;;;;;;2.77;2.20;;;2.20;99.90;1.20;100555.00;;;;4837794;28;118006;-67
2022/04/04 01:06:17;;;;;;;3.73;2.37;;;1.70;99.90;1.20;100558.00;;;;4837459;28;117468;-66
2022/04/04 01:08:44;;;;;;;2.57;2.00;;;1.50;99.90;1.20;100548.00;;;;4838182;28;99857;-68
2022/04/04 01:11:11;;;;;;;2.17;2.00;;;1.40;99.90;1.10;100553.00;;;;4841738;28;87709;-69
2022/04/04 01:13:38;;;;;;;2.07;1.87;;;1.30;99.90;1.10;100547.00;;;;4842032;28;87247;-67
2022/04/04 01:16:04;;;;;;;2.20;1.97;;;1.40;99.90;1.10;100546.00;;;;4823278;28;107139;-67
2022/04/04 01:18:29;;;;;;;2.33;2.13;;;2.20;99.90;1.10;100547.00;;;;4841470;28;99961;-67
2022/04/04 01:20:55;;;;;;;6.23;1.97;;;1.30;99.90;1.00;100543.00;;;;4840277;28;109459;-68
2022/04/04 01:23:25;;;;;;;2.23;2.00;;;1.30;99.90;1.00;100543.00;;;;4840863;28;111535;-67
2022/04/04 01:25:51;;;;;;;4.50;1.90;;;1.30;99.90;1.00;100551.00;;;;4840167;28;116727;-67
2022/04/04 01:28:17;;;;;;;6.23;2.27;;;1.30;99.90;1.00;100547.00;;;;4841576;28;87720;-66
2022/04/04 01:30:48;;;;;;;2.03;1.93;;;1.70;99.90;0.90;100529.00;;;;4841329;28;87975;-67
2022/04/04 01:33:14;;;;;;;2.00;1.83;;;1.50;99.90;0.90;100533.00;;;;4841132;28;105678;-69
2022/04/04 01:35:39;;;;;;;3.17;2.10;;;1.20;99.90;0.90;100535.00;;;;4840896;28;116756;-68
2022/04/04 01:38:05;;;;;;;1.90;1.67;;;1.90;99.90;0.90;100524.00;;;;4841002;28;109870;-67
2022/04/04 01:40:31;;;;;;;2.90;2.00;;;1.20;99.90;0.90;100530.00;;;;4840725;28;107718;-66
2022/04/04 01:42:57;;;;;;;2.60;2.17;;;1.10;99.90;0.90;100536.00;;;;4840153;28;114659;-69
2022/04/04 01:48:09;;;;;;;2.13;1.90;;;1.20;99.90;0.90;100529.00;;;;4824347;28;87985;-68
2022/04/04 01:50:36;;;;;;;2.27;2.07;;;1.20;99.90;0.90;100532.00;;;;4823007;28;88017;-66
2022/04/04 01:55:48;;;;;;;2.37;2.17;;;1.10;99.90;0.90;100522.00;;;;4840959;28;87755;-70
2022/04/04 01:58:13;;;;;;;2.57;2.10;;;1.10;99.90;0.90;100520.00;;;;4838964;28;87740;-67
2022/04/04 02:00:39;;;;;;;3.73;2.70;;;1.10;99.90;0.80;100516.00;;;;4840857;28;107521;-66
2022/04/04 02:03:05;;;;;;;1.83;1.63;;;1.20;99.90;0.80;100525.00;;;;4841054;28;88433;-70
2022/04/04 02:05:31;;;;;;;3.40;2.20;;;1.00;99.90;0.80;100517.00;;;;4841624;28;96493;-68
2022/04/04 02:07:57;;;;;;;2.67;2.23;;;1.10;99.90;0.80;100520.00;;;;4840473;28;103698;-67
2022/04/04 02:10:23;;;;;;;2.03;1.93;;;1.10;99.90;0.80;100518.00;;;;4840142;28;108770;-70
2022/04/04 02:12:49;;;;;;;3.20;2.23;;;1.20;99.90;0.80;100519.00;;;;4840505;28;116718;-69
2022/04/04 02:15:14;;;;;;;2.23;1.97;;;1.10;99.90;0.80;100518.00;;;;4854688;28;117209;-70
2022/04/04 02:17:40;;;;;;;5.07;2.93;;;1.20;99.90;0.80;100508.00;;;;4840137;28;104188;-68
2022/04/04 02:20:09;;;;;;;7.27;2.80;;;1.10;99.90;0.80;100521.00;;;;4840289;28;87787;-68
2022/04/04 02:22:35;;;;;;;3.40;2.47;;;1.10;99.90;0.80;100514.00;;;;4839896;28;108509;-68
2022/04/04 02:25:01;;;;;;;2.50;1.43;;;1.00;99.90;0.80;100511.00;;;;4839363;28;118592;-68
2022/04/04 02:27:27;;;;;;;3.07;2.67;;;1.10;99.90;0.80;100508.00;;;;4840924;28;108620;-70
2022/04/04 02:29:52;;;;;;;5.47;2.57;;;1.00;99.90;0.80;100502.00;;;;4840623;28;87778;-70
2022/04/04 02:32:19;;;;;;;2.60;2.13;;;1.10;99.90;0.80;100511.00;;;;4840508;28;88710;-68
2022/04/04 02:34:46;;;;;;;2.93;2.27;;;1.10;99.90;0.90;100495.00;;;;4839573;28;108901;-68
2022/04/04 02:37:13;;;;;;;3.03;2.73;;;1.20;99.90;0.90;100499.00;;;;4840436;28;95086;-69
2022/04/04 02:39:40;;;;;;;3.03;2.47;;;1.10;99.90;0.90;100486.00;;;;4853671;28;87739;-69
2022/04/04 02:42:06;;;;;;;4.13;2.23;;;1.10;99.90;0.80;100499.00;;;;4853780;28;107783;-70
2022/04/04 02:44:32;;;;;;;4.37;2.20;;;1.20;99.90;0.80;100493.00;;;;4852019;28;110545;-70
2022/04/04 02:46:58;;;;;;;3.10;2.80;;;1.90;99.90;0.80;100491.00;;;;4840383;28;110226;-68
2022/04/04 02:49:24;;;;;;;2.13;1.60;;;1.00;99.90;0.80;100496.00;;;;4852521;28;108888;-70
2022/04/04 02:51:52;;;;;;;2.30;2.10;;;1.10;99.90;0.80;100488.00;;;;4840170;28;88183;-70
2022/04/04 02:54:17;;;;;;;2.33;1.67;;;1.10;99.90;0.80;100495.00;;;;4840291;28;87879;-70
2022/04/04 02:56:43;;;;;;;2.60;2.20;;;1.00;99.90;0.80;100491.00;;;;4840659;28;87752;-70
2022/04/04 02:59:09;;;;;;;3.63;2.67;;;1.00;99.90;0.80;100490.00;;;;4840213;28;88654;-68
2022/04/04 03:01:38;;;;;;;1.70;1.60;;;1.10;99.90;0.80;100477.00;;;;4839722;28;117920;-70
2022/04/04 03:04:04;;;;;;;2.73;1.93;;;1.00;99.90;0.70;100495.00;;;;4840143;28;88167;-68
2022/04/04 03:06:30;;;;;;;2.27;2.07;;;1.00;99.90;0.70;100486.00;;;;4840113;28;101681;-68
2022/04/04 03:08:56;;;;;;;1.83;1.73;;;1.00;99.90;0.70;100478.00;;;;4824273;28;90656;-68
2022/04/04 03:11:22;;;;;;;2.03;1.83;;;1.00;99.90;0.70;100477.00;;;;4822438;28;88261;-69
2022/04/04 03:13:48;;;;;;;2.63;2.03;;;1.00;99.90;0.70;100479.00;;;;4840688;28;88491;-68
2022/04/04 03:16:14;;;;;;;2.90;1.87;;;1.00;99.90;0.80;100470.00;;;;4831177;28;87050;-68
2022/04/04 03:18:41;;;;;;;4.10;2.40;;;1.00;99.90;0.80;100474.00;;;;4819432;29;87857;-70
2022/04/04 03:21:07;;;;;;;2.57;2.17;;;1.00;99.90;0.80;100471.00;;;;4821083;29;89296;-68
2022/04/04 03:23:33;;;;;;;2.90;1.80;;;1.00;99.90;0.80;100466.00;;;;4803791;29;90466;-68
2022/04/04 03:26:00;;;;;;;2.53;2.33;;;1.10;99.90;0.80;100477.00;;;;4826332;29;89300;-68
2022/04/04 03:28:27;;;;;;;2.97;2.77;;;1.00;99.90;0.70;100463.00;;;;4822596;28;87895;-69
2022/04/04 03:30:53;;;;;;;3.03;2.10;;;1.00;99.90;0.80;100470.00;;;;4827693;28;88275;-68
2022/04/04 03:33:19;;;;;;;1.70;1.60;;;1.00;99.90;0.70;100464.00;;;;4837375;28;100854;-69
2022/04/04 03:35:45;;;;;;;2.17;1.77;;;1.00;99.90;0.70;100469.00;;;;4854471;28;87850;-68
2022/04/04 03:38:11;;;;;;;2.50;2.30;;;1.00;99.90;0.70;100467.00;;;;4838368;28;87910;-68
2022/04/04 03:40:38;;;;;;;2.90;2.27;;;1.00;99.90;0.70;100451.00;;;;4828823;28;87693;-68
2022/04/04 03:43:04;;;;;;;1.97;1.77;;;0.90;99.90;0.70;100459.00;;;;4823864;28;88106;-68
2022/04/04 03:45:31;;;;;;;3.33;3.03;;;0.90;99.90;0.70;100449.00;;;;4839344;28;101435;-70
2022/04/04 03:47:58;;;;;;;4.70;1.80;;;0.90;99.90;0.60;100452.00;;;;4839122;28;88381;-67
2022/04/04 03:50:26;;;;;;;4.00;2.17;;;0.90;99.90;0.60;100450.00;;;;4840074;28;88532;-67
2022/04/04 03:52:53;;;;;;;1.47;1.30;;;0.80;99.90;0.60;100452.00;;;;4840422;28;88028;-70
2022/04/04 03:55:31;;;;;;;2.30;2.10;;;0.90;99.90;0.60;100443.00;;;;4839571;28;88242;-68
2022/04/04 03:57:59;;;;;;;3.87;2.20;;;0.90;99.90;0.60;100446.00;;;;4839930;28;87593;-68
2022/04/04 04:00:26;;;;;;;2.30;1.90;;;0.70;99.90;0.60;100448.00;;;;4839097;28;87868;-70
2022/04/04 04:02:53;;;;;;;2.97;1.93;;;0.90;99.90;0.50;100446.00;;;;4853372;28;88243;-68
2022/04/04 04:05:20;;;;;;;2.47;1.73;;;0.80;99.90;0.50;100431.00;;;;4839935;28;87086;-68
2022/04/04 04:07:46;;;;;;;2.90;2.47;;;0.70;99.90;0.50;100437.00;;;;4833697;28;90570;-68
2022/04/04 04:10:12;;;;;;;3.10;2.00;;;0.80;99.90;0.50;100430.00;;;;4803555;29;114198;-70
2022/04/04 04:12:43;;;;;;;2.13;1.93;;;0.80;99.90;0.50;100436.00;;;;4819886;29;118009;-69
2022/04/04 04:15:13;;;;;;;5.90;2.20;;;0.80;99.90;0.50;100434.00;;;;4821425;28;88006;-69
2022/04/04 04:17:39;;;;;;;2.57;2.37;;;0.70;99.90;0.50;100428.00;;;;4837335;28;87919;-68
2022/04/04 04:20:21;;;;;;;4.53;2.27;;;1.40;99.90;0.50;100439.00;;;;4818918;29;118528;-70
2022/04/04 04:23:00;;;;;;;2.07;1.70;;;0.70;99.90;0.50;100430.00;;;;4823023;28;87734;-68
2022/04/04 04:25:28;;;;;;;2.27;2.07;;;0.80;99.90;0.60;100430.00;;;;4835734;28;87671;-68
2022/04/04 04:27:55;;;;;;;2.37;2.17;;;0.80;99.90;0.60;100419.00;;;;4820098;28;87810;-69
2022/04/04 04:30:21;;;;;;;2.93;2.23;;;0.80;99.90;0.60;100415.00;;;;4818473;28;87184;-69
2022/04/04 04:32:50;;;;;;;2.37;2.13;;;0.90;99.90;0.60;100417.00;;;;4822441;28;116808;-68
2022/04/04 04:35:17;;;;;;;3.00;2.27;;;0.80;99.90;0.70;100410.00;;;;4820243;28;87761;-69
2022/04/04 04:37:44;;;;;;;3.83;2.27;;;0.90;99.90;0.70;100421.00;;;;4825225;28;88691;-69
2022/04/04 04:40:12;;;;;;;2.60;2.20;;;0.90;99.90;0.80;100409.00;;;;4828997;28;88500;-67
2022/04/04 04:42:38;;;;;;;2.63;2.23;;;1.10;99.90;0.80;100401.00;;;;4836509;28;87868;-67
2022/04/04 04:45:06;;;;;;;2.53;2.10;;;1.00;99.90;0.90;100413.00;;;;4839306;28;87447;-68
2022/04/04 04:47:32;;;;;;;3.67;2.37;;;1.10;99.90;0.90;100407.00;;;;4839302;28;87687;-68
2022/04/04 04:50:00;;;;;;;3.30;2.47;;;1.10;99.90;1.00;100408.00;;;;3970973;28;10000891;-69
2022/04/04 04:52:27;;;;;;;4.53;1.87;;;1.10;99.90;1.00;100409.00;;;;4839052;28;87728;-70
2022/04/04 04:54:53;;;;;;;2.80;2.47;;;1.30;99.90;1.10;100403.00;;;;4841786;28;87571;-68
2022/04/04 04:57:20;;;;;;;4.03;2.37;;;1.30;99.90;1.10;100397.00;;;;4841960;28;117586;-68
2022/04/04 04:59:47;;;;;;;4.80;3.13;;;1.40;99.90;1.20;100394.00;;;;4856054;28;87843;-68
2022/04/04 05:02:13;;;;;;;4.33;2.23;;;1.40;99.90;1.20;100394.00;;;;4842192;28;88913;-67
2022/04/04 05:04:39;;;;;;;4.80;2.27;;;2.10;99.90;1.30;100393.00;;;;4842235;28;88178;-68
2022/04/04 05:07:07;;;;;;;2.57;2.37;;;1.60;99.90;1.40;100396.00;;;;4841483;28;117591;-69
2022/04/04 05:09:33;;;;;;;3.13;2.63;;;1.60;99.90;1.40;100394.00;;;;4825084;28;87800;-69
2022/04/04 05:11:59;;;;;;;4.07;2.77;;;1.90;99.90;1.50;100375.00;;;;4842898;28;87806;-68
2022/04/04 05:14:25;;;;;;;3.13;2.50;;;1.70;99.90;1.60;100386.00;;;;4840753;28;116846;-69
2022/04/04 05:16:53;;;;;;;2.83;2.37;;;1.70;99.90;1.60;100380.00;;;;4824435;28;90510;-68
2022/04/04 05:19:25;;;;;;;4.03;3.67;;;1.80;99.90;1.70;100397.00;;;;4842343;28;86918;-70
2022/04/04 05:21:54;;;;;;;5.10;3.23;;;1.80;99.90;1.70;100384.00;;;;4842093;28;87629;-69
2022/04/04 05:24:20;;;;;;;5.63;3.53;;;1.90;99.90;1.70;100384.00;;;;4841656;28;87984;-70
2022/04/04 05:26:46;;;;;;;4.33;2.23;;;1.90;99.90;1.70;100384.00;;;;4840880;28;108811;-69
2022/04/04 05:29:12;;;;;;;2.70;2.20;;;2.00;99.90;1.80;100384.00;;;;4841994;28;87709;-68
2022/04/04 05:31:37;;;;;;;3.33;2.73;;;2.00;99.90;1.80;100393.00;;;;4841040;28;109649;-67
2022/04/04 05:34:07;;;;;;;3.40;2.63;;;2.00;99.90;1.80;100391.00;;;;4841403;28;88237;-67
2022/04/04 05:36:33;;;;;;;3.80;2.67;;;2.00;99.90;1.90;100378.00;;;;4842190;28;88703;-68
2022/04/04 05:38:59;;;;;;;4.00;3.20;;;2.10;99.90;1.90;100385.00;;;;4840731;28;102667;-69
2022/04/04 05:41:27;;;;;;;3.33;2.70;;;2.10;99.90;2.00;100388.00;;;;4842605;28;88238;-67
2022/04/04 05:43:54;;;;;;;3.83;2.23;;;2.00;99.90;2.00;100380.00;;;;4841393;28;89432;-68
2022/04/04 05:46:20;;;;;;;2.17;2.00;;;2.40;99.90;2.00;100389.00;;;;4855173;28;88435;-68
2022/04/04 05:48:46;;;;;;;4.47;2.53;;;2.20;99.90;2.00;100384.00;;;;4841997;28;91058;-68
2022/04/04 05:51:16;;;;;;;3.53;2.00;;;2.30;99.90;2.10;100388.00;;;;4841565;28;88629;-69
2022/04/04 05:53:43;;;;;;;3.60;2.33;;;2.30;99.90;2.10;100381.00;;;;4841645;28;89027;-67
2022/04/04 05:56:09;;;;;;;4.43;2.73;;;2.40;99.90;2.20;100374.00;;;;4840709;28;88656;-67
2022/04/04 05:58:36;;;;;;;3.70;2.90;;;2.40;99.90;2.40;100374.00;;;;4841892;28;87577;-69
2022/04/04 06:01:03;;;;;;;2.40;1.90;;;2.50;99.90;2.50;100382.00;;;;4841773;28;87868;-70
2022/04/04 06:03:29;;;;;;;9.53;3.27;;;2.60;99.90;2.70;100386.00;;;;4820065;28;88919;-68
2022/04/04 06:05:55;;;;;;;5.80;2.97;;;2.80;99.90;2.90;100382.00;;;;4841811;28;88705;-69
2022/04/04 06:08:21;;;;;;;3.57;2.47;;;2.90;99.70;3.00;100377.00;;;;4840742;28;110775;-68
2022/04/04 06:10:47;;;;;;;3.90;3.07;;;3.10;98.70;3.20;100376.00;;;;4840906;28;104645;-68
2022/04/04 06:13:15;;;;;;;4.80;3.20;;;4.00;97.80;3.30;100373.00;;;;4841234;28;89167;-68
2022/04/04 06:15:42;;;;;;;3.17;2.77;;;3.40;97.00;3.50;100370.00;;;;4840997;28;102997;-68
2022/04/04 06:18:09;;;;;;;9.73;3.33;;;3.50;96.80;3.60;100369.00;;;;4841190;28;87947;-67
2022/04/04 06:20:35;;;;;;;3.60;2.50;;;3.70;95.60;3.70;100359.00;;;;4840647;28;97904;-69
2022/04/04 06:23:01;;;;;;;3.47;3.07;;;3.70;94.80;3.80;100365.00;;;;4840300;28;108338;-68
2022/04/04 06:25:27;;;;;;;3.57;2.93;;;3.90;94.40;3.90;100359.00;;;;4840977;28;94561;-68
2022/04/04 06:27:53;;;;;;;4.60;4.10;;;4.00;93.00;4.00;100363.00;;;;4840469;28;101798;-68
2022/04/04 06:30:19;;;;;;;5.87;3.23;;;4.20;92.40;4.10;100351.00;;;;4839005;28;109836;-70
2022/04/04 06:32:45;;;;;;;5.27;3.77;;;4.20;91.70;4.10;100334.00;;;;4854200;28;86979;-68
2022/04/04 06:35:15;;;;;;;4.53;3.17;;;4.30;91.30;4.10;100341.00;;;;4839890;28;115582;-67
2022/04/04 06:37:43;;;;;;;3.87;3.13;;;4.70;91.70;4.20;100331.00;;;;4840570;28;87949;-68
2022/04/04 06:40:10;;;;;;;5.87;3.87;;;4.30;91.60;4.30;100339.00;;;;4854534;28;88731;-67
2022/04/04 06:42:41;;;;;;;3.43;3.13;;;4.40;91.20;4.50;100326.00;;;;4840780;28;88320;-68
2022/04/04 06:45:09;;;;;;;6.10;3.97;;;4.60;90.70;4.70;100338.00;;;;4823083;28;87934;-68
2022/04/04 06:47:36;;;;;;;5.80;3.23;;;4.80;88.10;4.70;100330.00;;;;4839415;28;87863;-67
2022/04/04 06:50:03;;;;;;;4.20;3.80;;;4.80;87.20;4.80;100318.00;;;;4859390;28;87639;-66
2022/04/04 06:52:28;;;;;;;3.40;2.77;;;4.90;87.20;4.90;100323.00;;;;4847912;28;88928;-66
2022/04/04 06:54:56;;;;;;;5.07;3.33;;;4.90;86.60;5.00;100332.00;;;;4838502;28;117663;-67
2022/04/04 06:57:23;;;;;;;4.63;3.90;;;5.10;87.00;5.00;100318.00;;;;4841529;28;87021;-67
2022/04/04 06:59:49;;;;;;;4.40;3.70;;;5.20;84.10;5.00;100296.00;;;;4839053;28;97341;-67
2022/04/04 07:02:14;;;;;;;3.77;3.07;;;5.10;82.50;5.00;100315.00;;;;4840383;28;89121;-68
2022/04/04 07:04:43;;;;;;;4.27;3.70;;;5.20;82.90;5.10;100309.00;;;;4839354;28;88797;-68
2022/04/04 07:07:09;;;;;;;4.23;3.23;;;5.30;83.30;5.20;100311.00;;;;4840725;28;87937;-68
2022/04/04 07:09:35;;;;;;;5.00;3.80;;;5.20;83.90;5.20;100311.00;;;;4839683;28;87741;-68
2022/04/04 07:12:02;;;;;;;6.57;4.33;;;5.40;82.60;5.20;100300.00;;;;4853663;28;95247;-68
2022/04/04 07:14:28;;;;;;;9.63;3.90;;;5.40;81.50;5.20;100305.00;;;;4853338;28;88305;-68
2022/04/04 07:16:55;;;;;;;6.13;3.47;;;5.30;81.10;5.30;100307.00;;;;4840126;28;87800;-68
2022/04/04 07:19:24;;;;;;;4.97;3.33;;;5.40;81.00;5.30;100301.00;;;;4840497;28;87948;-68
2022/04/04 07:21:51;;;;;;;6.63;5.03;;;5.50;81.20;5.50;100292.00;;;;4840938;28;87753;-69
2022/04/04 07:24:17;;;;;;;3.77;3.20;;;6.10;83.00;5.70;100294.00;;;;4840414;28;88261;-69
2022/04/04 07:26:43;;;;;;;5.83;4.13;;;5.70;81.90;6.00;100278.00;;;;4822566;28;87786;-69
2022/04/04 07:29:09;;;;;;;4.67;4.03;;;6.00;79.00;6.20;100279.00;;;;4838556;28;108882;-69
2022/04/04 07:31:36;;;;;;;5.27;3.93;;;6.80;78.30;6.30;100273.00;;;;4839417;28;118183;-70
2022/04/04 07:34:03;;;;;;;6.63;3.63;;;6.30;76.40;6.50;100269.00;;;;4839465;28;88679;-68
2022/04/04 07:36:29;;;;;;;6.80;4.60;;;7.00;76.40;6.80;100274.00;;;;4839951;28;98604;-68
2022/04/04 07:38:55;;;;;;;4.93;3.83;;;6.80;75.10;6.90;100279.00;;;;4840821;28;87831;-69
2022/04/04 07:41:21;;;;;;;7.53;3.80;;;7.00;74.80;7.10;100259.00;;;;4852820;28;117687;-69
2022/04/04 07:43:47;;;;;;;5.47;4.50;;;7.00;73.10;7.20;100267.00;;;;4838743;28;117870;-69
2022/04/04 07:46:13;;;;;;;5.87;4.10;;;7.30;70.00;7.30;100261.00;;;;4840550;28;89495;-69
2022/04/04 07:48:41;;;;;;;6.47;3.40;;;7.40;69.10;7.40;100260.00;;;;4837816;28;108378;-69
2022/04/04 07:51:08;;;;;;;4.77;3.07;;;8.20;68.50;7.40;100261.00;;;;4839079;28;89168;-70
2022/04/04 07:53:34;;;;;;;5.63;3.70;;;7.50;68.80;7.60;100263.00;;;;4821863;28;89509;-69
2022/04/04 07:56:00;;;;;;;5.23;3.53;;;8.00;68.80;7.80;100239.00;;;;4819427;29;88113;-69
2022/04/04 07:58:26;;;;;;;4.73;3.50;;;7.80;66.80;7.80;100240.00;;;;4836092;28;87926;-67
2022/04/04 08:00:52;;;;;;;7.83;3.50;;;7.90;64.40;7.80;100242.00;;;;4839184;28;117925;-67
2022/04/04 08:03:19;;;;;;;4.23;3.20;;;7.90;64.00;7.80;100237.00;;;;4839506;28;88771;-68
2022/04/04 08:05:45;;;;;;;6.90;3.23;;;7.90;63.90;7.70;100231.00;;;;4821788;28;87852;-68
2022/04/04 08:08:11;;;;;;;3.37;2.60;;;7.80;62.90;7.50;100231.00;;;;4821944;28;87798;-69
2022/04/04 08:10:36;;;;;;;2.97;2.60;;;7.70;62.80;7.50;100227.00;;;;4840237;28;87141;-68
2022/04/04 08:13:03;;;;;;;2.40;2.20;;;7.60;63.40;7.60;100225.00;;;;4838458;28;115222;-69
2022/04/04 08:15:28;;;;;;;3.37;2.87;;;7.90;63.50;7.60;100201.00;;;;4839045;28;87739;-69
2022/04/04 08:17:54;;;;;;;3.47;2.37;;;7.70;62.30;7.60;100219.00;;;;4838584;28;88681;-69
2022/04/04 08:20:21;;;;;;;3.87;3.00;;;7.70;62.10;7.70;100201.00;;;;4838282;28;117422;-69
2022/04/04 08:22:47;;;;;;;5.23;2.63;;;7.70;61.20;7.70;100211.00;;;;4821399;28;87884;-69
2022/04/04 08:25:14;;;;;;;2.87;2.53;;;7.70;61.00;7.90;100196.00;;;;4839468;28;87556;-69
2022/04/04 08:27:43;;;;;;;4.60;3.20;;;7.90;60.40;8.00;100199.00;;;;4839573;28;91394;-69
2022/04/04 08:30:12;;;;;;;5.57;3.20;;;8.00;60.10;8.10;100205.00;;;;4840308;28;87847;-68
2022/04/04 08:32:39;;;;;;;4.53;3.47;;;8.20;59.70;8.10;100186.00;;;;4821368;28;90198;-67
2022/04/04 08:35:08;;;;;;;5.43;3.00;;;8.20;59.70;8.30;100189.00;;;;4822458;28;87088;-70
2022/04/04 08:37:35;;;;;;;13.40;3.63;;;8.30;59.00;8.30;100172.00;;;;4821754;28;100953;-68
2022/04/04 08:40:02;;;;;;;4.47;4.07;;;8.40;58.30;8.30;100164.00;;;;4838640;28;87827;-68
2022/04/04 08:42:29;;;;;;;4.20;3.37;;;8.30;58.30;8.30;100170.00;;;;4839127;28;88687;-69
2022/04/04 08:45:00;;;;;;;5.20;3.83;;;8.30;57.60;8.40;100183.00;;;;4838276;28;110866;-69
2022/04/04 08:47:29;;;;;;;3.40;3.10;;;8.40;58.20;8.50;100178.00;;;;4839521;28;87781;-68
2022/04/04 08:49:56;;;;;;;5.33;3.47;;;8.60;58.10;8.70;100161.00;;;;4821133;28;88590;-66
2022/04/04 08:52:23;;;;;;;5.97;4.00;;;8.80;57.20;8.70;100174.00;;;;4838607;28;105908;-68
2022/04/04 08:54:49;;;;;;;5.33;4.03;;;8.70;56.30;8.70;100174.00;;;;4822381;28;88013;-67
2022/04/04 08:57:16;;;;;;;5.97;4.23;;;8.70;56.00;8.60;100145.00;;;;4821302;28;106867;-69
2022/04/04 08:59:42;;;;;;;6.17;3.80;;;8.70;55.70;8.50;100156.00;;;;4838947;28;87535;-68
2022/04/04 09:02:09;;;;;;;5.73;4.60;;;8.60;56.00;8.60;100159.00;;;;4821624;28;87904;-68
2022/04/04 09:04:35;;;;;;;7.60;4.80;;;8.60;55.90;8.50;100149.00;;;;4838271;28;103436;-68
2022/04/04 09:07:06;;;;;;;6.63;4.47;;;8.60;56.00;8.60;100148.00;;;;4838734;28;88701;-69
2022/04/04 09:09:42;;;;;;;5.27;4.23;;;8.60;56.30;8.70;100143.00;;;;4839458;28;88399;-69
2022/04/04 09:12:11;;;;;;;7.77;4.40;;;8.70;56.30;8.90;100132.00;;;;4838114;28;115425;-68
2022/04/04 09:14:46;;;;;;;7.60;4.63;;;8.80;56.00;9.10;100122.00;;;;4838559;28;87953;-67
2022/04/04 09:17:13;;;;;;;7.20;5.20;;;9.00;55.80;9.20;100126.00;;;;4838101;28;100564;-67
2022/04/04 09:19:40;;;;;;;5.33;3.97;;;9.20;55.00;9.40;100129.00;;;;4838234;28;89073;-69
2022/04/04 09:22:15;;;;;;;6.00;4.20;;;9.30;54.20;9.30;100117.00;;;;4838742;28;87752;-69
2022/04/04 09:24:58;;;;;;;5.33;4.67;;;9.30;53.90;9.30;100090.00;;;;4822379;28;87412;-67
2022/04/04 09:27:32;;;;;;;8.43;4.60;;;9.30;53.60;9.20;100110.00;;;;4822045;28;87965;-67
2022/04/04 09:30:04;;;;;;;6.47;4.30;;;9.20;53.40;9.30;100103.00;;;;4838706;28;87852;-68
2022/04/04 09:32:40;;;;;;;5.20;4.33;;;9.30;53.90;9.40;100092.00;;;;4823558;28;89168;-69
2022/04/04 09:35:14;;;;;;;4.47;3.23;;;9.40;53.60;9.40;100036.00;;;;4842481;28;87868;-69
2022/04/04 09:37:44;;;;;;;5.53;3.47;;;9.50;52.30;9.20;100063.00;;;;4842097;28;87705;-68
2022/04/04 09:40:17;;;;;;;7.17;4.17;;;9.30;52.00;9.20;100068.00;;;;4841593;28;88644;-69
2022/04/04 09:42:57;;;;;;;3.63;3.33;;;9.20;52.80;9.30;100062.00;;;;4841765;28;88355;-69
2022/04/04 09:45:31;;;;;;;7.10;4.50;;;9.30;53.50;9.40;100074.00;;;;4825931;28;87806;-68
2022/04/04 09:48:08;;;;;;;4.20;3.47;;;9.40;53.80;9.50;100034.00;;;;4842177;28;87783;-70
2022/04/04 09:50:50;;;;;;;4.80;3.50;;;9.50;52.80;9.50;100047.00;;;;4842131;28;88265;-68
2022/04/04 09:53:29;;;;;;;3.73;3.37;;;9.50;52.40;9.40;100053.00;;;;4841219;28;87956;-68
2022/04/04 09:55:57;;;;;;;4.27;3.60;;;9.50;52.20;9.30;100024.00;;;;4841565;28;87824;-68
2022/04/04 09:58:26;;;;;;;6.67;3.30;;;9.40;52.20;9.20;100036.00;;;;4823761;28;88893;-69
2022/04/04 10:00:52;;;;;;;4.80;3.70;;;9.30;52.20;9.20;100023.00;;;;4841381;28;88952;-69
2022/04/04 10:03:20;;;;;;;15.47;4.03;;;9.20;52.60;9.10;100011.00;;;;4824518;28;87824;-68
2022/04/04 10:05:56;;;;;;;4.10;3.23;;;9.00;52.60;8.90;100023.00;;;;4856156;28;87799;-68
2022/04/04 10:08:25;;;;;;;8.90;3.93;;;9.10;52.70;8.70;100017.00;;;;4841954;28;87752;-68
2022/04/04 10:10:54;;;;;;;6.20;3.57;;;8.90;52.80;8.60;100025.00;;;;4843711;28;88087;-69
2022/04/04 10:13:20;;;;;;;5.70;3.97;;;8.80;53.20;8.50;100013.00;;;;4842248;28;87832;-69
2022/04/04 10:15:47;;;;;;;3.80;2.93;;;8.60;53.50;8.40;100005.00;;;;4842138;28;86888;-68
2022/04/04 10:18:15;;;;;;;6.90;3.53;;;8.60;53.80;8.40;99985.00;;;;4840827;28;89563;-69
2022/04/04 10:20:42;;;;;;;6.00;3.60;;;8.40;54.00;8.40;99975.00;;;;4841807;28;88574;-69
2022/04/04 10:23:12;;;;;;;4.47;3.33;;;8.40;54.30;8.50;99975.00;;;;4840375;28;97091;-68
2022/04/04 10:25:39;;;;;;;3.83;2.97;;;8.50;54.20;8.50;99971.00;;;;4841523;28;88052;-68
2022/04/04 10:28:04;;;;;;;10.90;3.97;;;8.60;54.00;8.60;99979.00;;;;4836198;28;100280;-67
2022/04/04 10:30:34;;;;;;;4.00;3.13;;;8.60;53.30;8.70;99962.00;;;;4837196;28;108781;-69
2022/04/04 10:33:03;;;;;;;3.53;3.07;;;8.70;53.10;8.80;99948.00;;;;4840602;28;96294;-69
2022/04/04 10:35:31;;;;;;;4.63;3.50;;;8.70;53.10;8.80;99954.00;;;;4841180;28;87607;-68
2022/04/04 10:38:07;;;;;;;5.37;3.30;;;8.80;53.00;9.00;99936.00;;;;4840418;28;87907;-67
2022/04/04 10:40:34;;;;;;;4.70;3.10;;;8.90;52.80;9.20;99950.00;;;;4840798;28;87389;-68
2022/04/04 10:43:12;;;;;;;4.13;3.73;;;9.10;51.90;9.40;99940.00;;;;4839902;28;87971;-69
2022/04/04 10:45:57;;;;;;;4.23;3.40;;;9.30;52.40;9.70;99924.00;;;;4823490;28;88581;-68
2022/04/04 10:48:40;;;;;;;4.90;4.10;;;9.60;51.60;9.80;99925.00;;;;4838893;28;88566;-68
2022/04/04 10:51:15;;;;;;;6.87;3.80;;;9.70;51.40;9.90;99932.00;;;;4854802;28;88191;-69
2022/04/04 10:53:57;;;;;;;5.07;3.57;;;9.90;51.10;9.90;99913.00;;;;4831944;28;87771;-70
2022/04/04 10:56:31;;;;;;;3.47;2.83;;;9.90;50.30;9.80;99917.00;;;;4855103;28;88265;-69
2022/04/04 10:59:15;;;;;;;6.93;3.57;;;9.80;49.60;9.70;99895.00;;;;4853446;28;87998;-68
2022/04/04 11:01:53;;;;;;;10.53;2.97;;;9.70;49.70;9.60;99900.00;;;;4840845;28;87891;-68
2022/04/04 11:07:37;;;;;;;3.40;3.03;;;9.70;49.60;9.50;99888.00;;;;4854104;28;88136;-68
2022/04/04 11:07:38;;;;;;;8.60;2.90;;;9.60;49.80;9.60;99854.00;;;;4836731;28;86942;-69